Pagina principale
METAR-TAF:

METAR-TAF

Aeroporti :

Guidonia Montecelio, Italia

Aeroporto di Guidonia

latitudine: 42-00N, longitudine: 012-44E, altezza: 88 m

Osservazione

Il bollettino è stato emesso 44 minuti fa, alle 08:55 UTC
Vento 6 kt da sud
Temperature 25°C
Umidità 39%
Pressione 1019 hPa
Visibilità 10 km o più
nessuna nube inferiore a 1500 m e nessun cumulonembo

METAR: LIRG 290855Z 17006KT CAVOK 25/10 Q1019 RMK SKC MON NE LIB NC VIS MIN 9999 BLU

Ora: 11:39 (09:39 UTC)

Previsione

Il bollettino è stato emesso 4 ore e 39 minuti fa, alle 05:00 UTC
Previsione valida dal 29 alle 06 UTC al 29 alle 15 UTC
Vento 3 kt da direzioni variabili
Visibilità 10 km o più
nessuna nube inferiore a 1500 m e nessun cumulonembo

TAF: LIRG 290500Z 2906/2915 VRB03KT CAVOK

Osservazioni e previsioni meteorologiche di più di 4000 aeroporti (messaggi METAR e TAF).

Le stazioni disponibili sono rappresentate dai dischi gialli e rossi sulla carta.

Puntare il mouse per vedere il nome della stazione.

Clicca sopra per visualizzare le osservazioni e previsioni meteorologiche.

Per cambiare la mappa : fare clic sui pulsanti verdi con una croce nera per ingrandire, il pulsante verde con un trattino per diminuire, o sulla freccia verde per le mappe adiacenti.


METAR-TAF: